DW3478 Weather Reports


time (UTC)temp
C
wind
direction
speed
KPH
gust
KPH
rain 1hr
cm
rain 24hr
cm
rain mn
cm
humidity
%
barometer
mb
20200220080304 12 53 3.2 8.0 0.00 0.00 0.00 63 1023.9
20200220075305 12 53 3.2 8.0 0.00 0.00 0.00 63 1023.8
20200220074804 12 53 3.2 8.0 0.00 0.00 0.00 63 1023.7
20200220074304 12 53 4.8 8.0 0.00 0.00 0.00 63 1023.6
20200220073804 12 53 3.2 8.0 0.00 0.00 0.00 62 1023.5
20200220072805 12 53 4.8 8.0 0.00 0.00 0.00 61 1023.5
20200220072306 12 53 4.8 8.0 0.00 0.00 0.00 61 1023.2
20200220071804 12 53 4.8 8.0 0.00 0.00 0.00 59 1023.1
20200220071305 12 53 6.4 9.7 0.00 0.00 0.00 60 1023.3
20200220070805 12 53 4.8 9.7 0.00 0.00 0.00 60 1023.3
20200220070305 12 53 4.8 8.0 0.00 0.00 0.00 61 1023.4
20200220065305 12 53 4.8 8.0 0.00 0.00 0.00 60 1023.4
20200220064805 12 53 8.0 9.7 0.00 0.00 0.00 58 1023.2
20200220063305 13 53 4.8 11.3 0.00 0.00 0.00 59 1023.0
20200220062805 13 53 4.8 11.3 0.00 0.00 0.00 56 1023.0
20200220062305 13 53 4.8 8.0 0.00 0.00 0.00 56 1023.1
20200220060805 13 53 8.0 11.3 0.00 0.00 0.00 57 1023.1
20200220055305 13 53 9.7 20.9 0.00 0.00 0.00 56 1022.9
20200220054805 13 65 9.7 19.3 0.00 0.00 0.00 56 1023.0
20200220054304 13 53 12.9 20.9 0.00 0.00 0.00 56 1023.1
20200220053804 13 59 8.0 12.9 0.00 0.00 0.00 56 1023.2
20200220053305 13 59 9.7 19.3 0.00 0.00 0.00 56 1023.2
20200220052805 13 76 9.7 19.3 0.00 0.00 0.00 57 1023.2
20200220052305 13 49 12.9 24.1 0.00 0.00 0.00 57 1023.2
20200220051805 13 55 9.7 19.3 0.00 0.00 0.00 57 1023.3
20200220051305 13 55 8.0 20.9 0.00 0.00 0.00 57 1023.3
20200220050804 13 51 11.3 25.7 0.00 0.00 0.00 57 1023.3
20200220050305 13 51 11.3 19.3 0.00 0.00 0.00 57 1023.4
20200220045805 13 52 9.7 16.1 0.00 0.00 0.00 56 1023.4
20200220045304 13 52 8.0 19.3 0.00 0.00 0.00 56 1023.3
20200220044804 13 54 11.3 25.7 0.00 0.00 0.00 56 1023.4
20200220044304 13 51 14.5 24.1 0.00 0.00 0.00 56 1023.4
20200220043805 13 50 9.7 19.3 0.00 0.00 0.00 56 1023.4
20200220043305 13 49 11.3 20.9 0.00 0.00 0.00 56 1023.3
20200220042805 13 49 14.5 27.4 0.00 0.00 0.00 57 1023.3
20200220041805 13 52 12.9 24.1 0.00 0.00 0.00 56 1023.5
20200220041304 13 46 12.9 24.1 0.00 0.00 0.00 56 1023.5
20200220040805 13 44 12.9 22.5 0.00 0.00 0.00 56 1023.4
20200220035805 13 51 9.7 22.5 0.00 0.00 0.00 55 1023.5
20200220035305 13 53 9.7 19.3 0.00 0.00 0.00 56 1023.5
20200220034805 13 53 8.0 16.1 0.00 0.00 0.00 56 1023.6
20200220034304 13 53 11.3 19.3 0.00 0.00 0.00 55 1023.7
20200220033805 13 54 6.4 16.1 0.00 0.00 0.00 55 1023.8
20200220032804 13 54 8.0 16.1 0.00 0.00 0.00 56 1024.0
20200220032304 13 54 12.9 20.9 0.00 0.00 0.00 56 1024.0
20200220031805 13 56 8.0 16.1 0.00 0.00 0.00 56 1024.0
20200220025305 13 71 4.8 19.3 0.00 0.00 0.00 57 1024.1
20200220024305 13 55 9.7 19.3 0.00 0.00 0.00 57 1024.2
20200220023305 13 58 9.7 25.7 0.00 0.00 0.00 56 1024.1
20200220022804 13 59 9.7 22.5 0.00 0.00 0.00 55 1024.2
20200220022305 13 42 6.4 20.9 0.00 0.00 0.00 56 1024.3
20200220021805 13 61 16.1 32.2 0.00 0.00 0.00 56 1024.3
20200220021304 13 65 16.1 22.5 0.00 0.00 0.00 55 1024.3
20200220020304 13 49 11.3 22.5 0.00 0.00 0.00 56 1024.3
20200220015804 13 49 8.0 19.3 0.00 0.00 0.00 57 1024.4
20200220015304 13 48 4.8 9.7 0.00 0.00 0.00 56 1024.5
20200220014305 13 48 8.0 14.5 0.00 0.00 0.00 58 1024.5
20200220013805 13 48 4.8 11.3 0.00 0.00 0.00 58 1024.5
20200220012805 13 48 3.2 8.0 0.00 0.00 0.00 57 1024.7
20200220012305 13 48 4.8 11.3 0.00 0.00 0.00 58 1024.8
20200220011305 13 48 3.2 9.7 0.00 0.00 0.00 60 1024.9
20200220010804 13 48 4.8 11.3 0.00 0.00 0.00 60 1024.9
20200220010304 13 49 3.2 9.7 0.00 0.00 0.00 58 1025.0
20200220005805 13 49 4.8 8.0 0.00 0.00 0.00 58 1025.0
20200220005305 13 49 4.8 8.0 0.00 0.00 0.00 57 1025.1
20200220004805 13 49 3.2 9.7 0.00 0.00 0.00 56 1025.1
20200220004304 13 49 1.6 9.7 0.00 0.00 0.00 59 1025.1
20200220003805 13 49 3.2 8.0 0.00 0.00 0.00 61 1025.1
20200220001305 12 49 1.6 4.8 0.00 0.00 0.00 59 1025.3
20200220000821 13 49 1.6 4.8 0.00 0.00 0.00 57 1025.3
20200219235305 13 49 6.4 9.7 0.00 0.00 0.00 56 1025.3
20200219234305 13 49 6.4 9.7 0.00 0.00 0.00 60 1025.4
20200219233805 13 49 3.2 9.7 0.00 0.00 0.00 58 1025.4
20200219233304 13 49 4.8 9.7 0.00 0.00 0.00 57 1025.5
20200219232805 13 49 4.8 9.7 0.00 0.00 0.00 58 1025.6
20200219231805 13 49 8.0 9.7 0.00 0.00 0.00 58 1025.7
20200219231305 13 49 4.8 11.3 0.00 0.00 0.00 57 1025.6
20200219230806 13 49 6.4 11.3 0.00 0.00 0.00 57 1025.6
20200219230304 13 49 4.8 9.7 0.00 0.00 0.00 58 1025.6
20200219225305 14 49 3.2 11.3 0.00 0.00 0.00 58 1025.4
20200219224305 13 49 8.0 19.3 0.00 0.00 0.00 56 1025.3
20200219223305 14 49 8.0 16.1 0.00 0.00 0.00 56 1025.4
20200219222805 14 49 4.8 16.1 0.00 0.00 0.00 57 1025.4
20200219222307 14 49 12.9 20.9 0.00 0.00 0.00 57 1025.4
20200219221805 14 49 3.2 14.5 0.00 0.00 0.00 57 1025.4
20200219221305 14 50 11.3 25.7 0.00 0.00 0.00 59 1025.4
20200219220305 13 41 9.7 20.9 0.00 0.00 0.00 56 1025.5
20200219214805 14 36 14.5 22.5 0.00 0.00 0.00 57 1025.5
20200219214305 14 5 12.9 19.3 0.00 0.00 0.00 57 1025.5
20200219213805 14 355 8.0 19.3 0.00 0.00 0.00 58 1025.4
20200219213305 14 355 8.0 14.5 0.00 0.00 0.00 58 1025.4
20200219212805 14 355 8.0 11.3 0.00 0.00 0.00 58 1025.5
20200219211804 14 355 4.8 11.3 0.00 0.00 0.00 58 1025.4
20200219211304 14 355 6.4 11.3 0.00 0.00 0.00 57 1025.3
20200219210805 14 355 8.0 19.3 0.00 0.00 0.00 58 1025.3
20200219210304 14 352 9.7 19.3 0.00 0.00 0.00 58 1025.2
20200219205805 14 345 8.0 16.1 0.00 0.00 0.00 59 1025.1
20200219205304 14 341 4.8 9.7 0.00 0.00 0.00 61 1025.2
20200219204805 14 341 4.8 11.3 0.00 0.00 0.00 61 1025.2
20200219204305 14 341 4.8 9.7 0.00 0.00 0.00 60 1025.1
20200219203804 14 341 4.8 9.7 0.00 0.00 0.00 60 1025.1
20200219203305 14 341 4.8 11.3 0.00 0.00 0.00 59 1025.1
20200219202305 13 331 8.0 14.5 0.00 0.00 0.00 59 1024.9
20200219201804 13 329 8.0 16.1 0.00 0.00 0.00 59 1024.8
20200219201304 13 317 9.7 14.5 0.00 0.00 0.00 59 1024.7
20200219195304 14 288 1.6 4.8 0.00 0.00 0.00 64 1024.5
20200219194804 14 288 1.6 3.2 0.00 0.00 0.00 64 1024.6
20200219194305 14 288 0.0 1.6 0.00 0.00 0.00 64 1024.6
20200219193804 14 288 1.6 4.8 0.00 0.00 0.00 63 1024.6
20200219193304 15 288 1.6 3.2 0.00 0.00 0.00 62 1024.7
20200219192305 15 288 0.0 0.0 0.00 0.00 0.00 62 1024.6
20200219191305 15 288 0.0 0.0 0.00 0.00 0.00 62 1024.4
20200219190804 15 288 0.0 3.2 0.00 0.00 0.00 60 1024.4
20200219190305 15 288 3.2 8.0 0.00 0.00 0.00 57 1024.4
20200219185805 15 288 1.6 4.8 0.00 0.00 0.00 56 1024.3
20200219185304 15 288 0.0 4.8 0.00 0.00 0.00 58 1024.4
20200219184804 15 288 1.6 4.8 0.00 0.00 0.00 61 1024.4
20200219184304 16 288 1.6 4.8 0.00 0.00 0.00 61 1024.4
20200219182805 16 289 1.6 4.8 0.00 0.00 0.00 60 1024.5
20200219182305 16 288 3.2 11.3 0.00 0.00 0.00 60 1024.4
20200219181305 17 288 3.2 8.0 0.00 0.00 0.00 60 1024.4
20200219180804 17 288 3.2 11.3 0.00 0.00 0.00 59 1024.5
20200219180305 17 289 8.0 12.9 0.00 0.00 0.00 59 1024.5
20200219175804 17 289 4.8 14.5 0.00 0.00 0.00 59 1024.5
20200219175305 17 286 4.8 14.5 0.00 0.00 0.00 59 1024.6
20200219174805 17 284 4.8 11.3 0.00 0.00 0.00 59 1024.6
20200219173805 17 301 8.0 19.3 0.00 0.00 0.00 59 1024.6
20200219173305 17 307 9.7 19.3 0.00 0.00 0.00 59 1024.6
20200219172804 17 295 6.4 16.1 0.00 0.00 0.00 59 1024.6
20200219172305 17 295 8.0 19.3 0.00 0.00 0.00 60 1024.7
20200219171304 17 288 9.7 22.5 0.00 0.00 0.00 59 1024.6
20200219170805 17 271 16.1 29.0 0.00 0.00 0.00 59 1024.7
20200219170304 17 283 11.3 20.9 0.00 0.00 0.00 58 1024.7
20200219165805 18 288 8.0 19.3 0.00 0.00 0.00 56 1024.7
20200219164805 19 291 6.4 14.5 0.00 0.00 0.00 57 1024.8
20200219163805 17 271 9.7 22.5 0.00 0.00 0.00 61 1024.8
20200219163304 17 200 14.5 19.3 0.00 0.00 0.00 61 1025.0
20200219162804 17 169 11.3 19.3 0.00 0.00 0.00 61 1025.0
20200219161304 16 146 9.7 16.1 0.00 0.00 0.00 63 1025.1
20200219160805 16 144 8.0 11.3 0.00 0.00 0.00 62 1025.3
20200219160304 16 144 6.4 11.3 0.00 0.00 0.00 63 1025.3
20200219155804 16 144 6.4 11.3 0.00 0.00 0.00 63 1025.4
20200219154805 16 144 4.8 8.0 0.00 0.00 0.00 62 1025.4
20200219154304 16 144 6.4 9.7 0.00 0.00 0.00 63 1025.4
20200219153805 16 144 4.8 11.3 0.00 0.00 0.00 63 1025.3
20200219153304 16 144 4.8 11.3 0.00 0.00 0.00 62 1025.3
20200219152804 16 144 6.4 11.3 0.00 0.00 0.00 62 1025.4
20200219152304 16 144 8.0 11.3 0.00 0.00 0.00 63 1025.5
20200219151805 16 144 4.8 9.7 0.00 0.00 0.00 63 1025.5
20200219145805 16 144 6.4 11.3 0.00 0.00 0.00 63 1025.6
20200219145305 16 144 9.7 12.9 0.00 0.00 0.00 62 1025.6
20200219144304 17 144 8.0 16.1 0.00 0.00 0.00 62 1025.7
20200219142804 17 143 8.0 14.5 0.00 0.00 0.00 60 1025.9
20200219142304 16 143 11.3 16.1 0.00 0.00 0.00 61 1026.0
20200219141805 16 142 8.0 11.3 0.00 0.00 0.00 62 1026.1
20200219140804 17 142 9.7 19.3 0.00 0.00 0.00 62 1026.3
20200219140305 17 140 8.0 16.1 0.00 0.00 0.00 62 1026.4
20200219135305 17 140 8.0 16.1 0.00 0.00 0.00 60 1026.5
20200219134804 17 140 8.0 16.1 0.00 0.00 0.00 59 1026.5
20200219133304 17 138 8.0 11.3 0.00 0.00 0.00 61 1026.9
20200219132304 17 138 8.0 16.1 0.00 0.00 0.00 60 1027.1
20200219131805 17 138 4.8 16.1 0.00 0.00 0.00 60 1027.1
20200219131304 17 138 9.7 16.1 0.00 0.00 0.00 60 1027.1
20200219130804 17 136 6.4 19.3 0.00 0.00 0.00 62 1027.3
20200219130305 17 136 9.7 19.3 0.00 0.00 0.00 62 1027.4
20200219125304 17 136 9.7 19.3 0.00 0.00 0.00 60 1027.5
20200219124804 17 131 8.0 16.1 0.00 0.00 0.00 62 1027.6
20200219123305 17 126 8.0 16.1 0.00 0.00 0.00 61 1027.8
20200219122304 16 125 11.3 19.3 0.00 0.00 0.00 62 1027.8
20200219121804 17 118 9.7 20.9 0.00 0.00 0.00 61 1027.9
20200219120804 16 69 9.7 16.1 0.00 0.00 0.00 62 1028.0
20200219120304 17 67 8.0 11.3 0.00 0.00 0.00 62 1028.1
20200219115805 16 67 8.0 14.5 0.00 0.00 0.00 63 1028.1
20200219115304 16 67 8.0 14.5 0.00 0.00 0.00 62 1028.2
20200219114804 16 67 6.4 12.9 0.00 0.00 0.00 63 1028.2
20200219114304 16 67 4.8 11.3 0.00 0.00 0.00 62 1028.2
20200219113804 16 67 4.8 11.3 0.00 0.00 0.00 62 1028.3
20200219113304 17 67 6.4 12.9 0.00 0.00 0.00 62 1028.3
20200219112804 16 67 8.0 11.3 0.00 0.00 0.00 61 1028.3
20200219112306 16 66 8.0 12.9 0.00 0.00 0.00 61 1028.2
20200219111804 16 64 4.8 11.3 0.00 0.00 0.00 63 1028.3
20200219111304 17 64 6.4 9.7 0.00 0.00 0.00 62 1028.3
20200219110804 17 63 8.0 14.5 0.00 0.00 0.00 62 1028.3
20200219110304 16 63 6.4 11.3 0.00 0.00 0.00 62 1028.4
20200219105805 17 63 6.4 11.3 0.00 0.00 0.00 61 1028.4
20200219105306 16 63 6.4 11.3 0.00 0.00 0.00 62 1028.3
20200219104804 16 63 4.8 11.3 0.00 0.00 0.00 64 1028.4
20200219104304 16 63 8.0 11.3 0.00 0.00 0.00 63 1028.3
20200219103804 16 63 8.0 16.1 0.00 0.00 0.00 64 1028.3
20200219102805 16 61 8.0 14.5 0.00 0.00 0.00 63 1028.3
20200219101805 16 57 4.8 9.7 0.00 0.00 0.00 63 1028.2
20200219101304 16 57 4.8 9.7 0.00 0.00 0.00 62 1028.2
20200219100804 16 57 4.8 9.7 0.00 0.00 0.00 62 1028.2
20200219100304 16 57 4.8 8.0 0.00 0.00 0.00 62 1028.2
20200219095305 16 57 3.2 14.5 0.00 0.00 0.00 63 1028.1
20200219094805 16 56 6.4 9.7 0.00 0.00 0.00 63 1028.1
20200219094304 16 56 6.4 11.3 0.00 0.00 0.00 63 1028.0
20200219093304 15 55 3.2 4.8 0.00 0.00 0.00 64 1028.1
20200219092805 16 55 4.8 9.7 0.00 0.00 0.00 63 1028.0
20200219092305 16 55 1.6 4.8 0.00 0.00 0.00 64 1028.1
20200219091804 15 55 1.6 4.8 0.00 0.00 0.00 64 1028.1
20200219091305 15 55 3.2 4.8 0.00 0.00 0.00 63 1028.0
20200219085305 15 55 1.6 3.2 0.00 0.00 0.00 61 1027.8
20200219084805 15 55 1.6 4.8 0.00 0.00 0.00 61 1027.6
20200219084305 14 55 1.6 8.0 0.00 0.00 0.00 59 1027.7
20200219083804 13 55 3.2 4.8 0.00 0.00 0.00 60 1027.6
20200219083305 13 55 4.8 11.3 0.00 0.00 0.00 60 1027.6
20200219082805 13 55 6.4 9.7 0.00 0.00 0.00 59 1027.6
20200219082305 13 55 4.8 9.7 0.00 0.00 0.00 60 1027.6
20200219081805 13 55 8.0 9.7 0.00 0.00 0.00 60 1027.6
20200219081305 13 55 8.0 9.7 0.00 0.00 0.00 59 1027.6
20200219080805 13 55 6.4 9.7 0.00 0.00 0.00 57 1027.5